Time;durP1;ratioP1;P1;durP2;ratioP2;P2;SDS_P1;SDS_P2;PMS_P1;PMS_P2;Temp;Humidity;BMP_temperature;BMP_pressure;BME280_temperature;BME280_humidity;BME280_pressure;Samples;Min_cycle;Max_cycle;Signal;HPM_P1;HPM_P2
2022/01/31 00:00:55;;;;;;;15.75;2.83;;;;;;;15.39;27.11;97629.03;5060971;28;20037;-80
2022/01/31 00:03:21;;;;;;;17.00;3.03;;;;;;;15.08;27.30;97618.56;5070358;28;20075;-80
2022/01/31 00:05:48;;;;;;;13.18;2.95;;;;;;;15.27;26.76;97625.78;5060102;28;20029;-80
2022/01/31 00:08:20;;;;;;;10.20;2.03;;;;;;;15.33;27.06;97632.56;5061313;28;20107;-80
2022/01/31 00:10:47;;;;;;;10.55;2.20;;;;;;;14.67;27.36;97633.66;5057718;28;20067;-80
2022/01/31 00:13:17;;;;;;;14.38;2.33;;;;;;;15.19;27.03;97627.72;5063826;28;20391;-80
2022/01/31 00:15:47;;;;;;;15.02;2.78;;;;;;;13.70;28.48;97628.28;5060698;28;20400;-80
2022/01/31 00:18:13;;;;;;;19.27;2.40;;;;;;;13.88;28.54;97650.56;5066367;28;20097;-80
2022/01/31 00:20:40;;;;;;;12.98;2.00;;;;;;;14.22;28.55;97634.78;5066627;28;20035;-81
2022/01/31 00:23:06;;;;;;;13.80;2.58;;;;;;;13.76;29.50;97650.81;5073503;28;20461;-80
2022/01/31 00:25:32;;;;;;;8.48;1.90;;;;;;;14.53;28.56;97645.38;5063108;28;20381;-80
2022/01/31 00:27:58;;;;;;;16.20;2.17;;;;;;;14.04;29.53;97653.13;5065282;28;20485;-80
2022/01/31 00:30:24;;;;;;;15.65;2.25;;;;;;;14.09;29.15;97625.97;5073285;28;20070;-80
2022/01/31 00:32:50;;;;;;;17.05;2.58;;;;;;;14.63;28.52;97614.28;5065209;28;20365;-80
2022/01/31 00:35:16;;;;;;;12.95;2.42;;;;;;;15.87;26.36;97630.47;5063086;28;20389;-80
2022/01/31 00:37:42;;;;;;;10.68;2.00;;;;;;;16.04;25.94;97641.97;5072084;28;20104;-80
2022/01/31 00:40:10;;;;;;;18.65;2.97;;;;;;;15.08;26.96;97627.66;5071478;28;20037;-80
2022/01/31 00:42:36;;;;;;;12.93;2.97;;;;;;;14.36;27.89;97630.22;5068370;28;20503;-80
2022/01/31 00:45:17;;;;;;;26.20;3.00;;;;;;;13.91;28.08;97643.50;5065205;28;20530;-80
2022/01/31 00:47:48;;;;;;;13.88;2.05;;;;;;;14.11;27.36;97612.59;5066026;28;20063;-80
2022/01/31 00:50:16;;;;;;;17.77;3.90;;;;;;;13.54;28.08;97608.38;5068828;28;20049;-80
2022/01/31 00:52:43;;;;;;;11.77;3.38;;;;;;;13.51;28.65;97633.94;5065789;28;20546;-80
2022/01/31 00:55:12;;;;;;;15.38;1.40;;;;;;;12.21;30.13;97604.38;5068128;28;20065;-80
2022/01/31 00:57:40;;;;;;;11.95;1.85;;;;;;;12.69;29.47;97608.31;5069675;28;20024;-80
2022/01/31 01:00:07;;;;;;;14.30;2.13;;;;;;;13.47;28.26;97596.47;5063524;28;20037;-80
2022/01/31 01:02:35;;;;;;;9.13;2.00;;;;;;;13.57;27.11;97607.63;5065889;28;20067;-80
2022/01/31 01:05:01;;;;;;;9.85;1.70;;;;;;;13.28;28.08;97600.16;5068036;28;20037;-80
2022/01/31 01:07:27;;;;;;;10.18;1.30;;;;;;;13.11;28.21;97592.47;5071921;28;20056;-80
2022/01/31 01:09:53;;;;;;;10.18;1.63;;;;;;;13.68;27.77;97624.31;5063115;28;20036;-80
2022/01/31 01:12:19;;;;;;;13.48;1.85;;;;;;;15.17;25.58;97616.25;5056562;28;20502;-79
2022/01/31 01:14:48;;;;;;;14.02;1.88;;;;;;;15.60;24.63;97623.63;5064397;28;20033;-79
2022/01/31 01:17:15;;;;;;;10.48;1.95;;;;;;;14.38;26.90;97641.69;5065686;28;20401;-79
2022/01/31 01:19:43;;;;;;;11.75;2.30;;;;;;;14.05;26.16;97636.16;5061399;28;20111;-79
2022/01/31 01:22:09;;;;;;;14.85;1.92;;;;;;;15.05;25.86;97627.63;5063821;28;20056;-79
2022/01/31 01:24:36;;;;;;;8.25;1.55;;;;;;;14.53;26.01;97643.41;5073944;28;20040;-79
2022/01/31 01:27:02;;;;;;;11.35;1.88;;;;;;;14.88;25.73;97637.38;5066428;28;20029;-79
2022/01/31 01:29:28;;;;;;;14.50;2.35;;;;;;;15.77;24.65;97647.84;5057556;28;20040;-79
2022/01/31 01:31:55;;;;;;;12.18;2.28;;;;;;;15.58;24.89;97637.06;5060423;28;20036;-79
2022/01/31 01:34:22;;;;;;;9.40;2.67;;;;;;;14.48;26.57;97645.72;5066744;28;20025;-79
2022/01/31 01:36:52;;;;;;;9.18;1.33;;;;;;;16.37;23.58;97638.91;5063018;28;20067;-79
2022/01/31 01:39:19;;;;;;;9.50;1.63;;;;;;;15.65;24.67;97650.13;5062654;28;20024;-79
2022/01/31 01:41:45;;;;;;;12.07;2.00;;;;;;;16.95;22.88;97627.47;5067514;28;20480;-79
2022/01/31 01:44:11;;;;;;;15.93;1.58;;;;;;;16.22;23.20;97632.53;5064438;28;20040;-79
2022/01/31 01:46:37;;;;;;;10.30;1.75;;;;;;;16.23;23.40;97638.88;5063816;28;20041;-79
2022/01/31 01:49:03;;;;;;;11.57;1.42;;;;;;;15.34;24.80;97645.97;5072467;28;20041;-79
2022/01/31 01:51:30;;;;;;;10.02;2.08;;;;;;;15.82;24.18;97630.81;5067389;28;20070;-79
2022/01/31 01:53:58;;;;;;;10.30;1.52;;;;;;;16.10;23.79;97635.69;5064587;28;20029;-79
2022/01/31 01:56:24;;;;;;;13.00;2.00;;;;;;;17.44;22.03;97634.94;5071645;28;20028;-79
2022/01/31 01:58:50;;;;;;;9.57;1.70;;;;;;;18.02;21.33;97635.16;5069716;28;20037;-79
2022/01/31 02:01:16;;;;;;;11.48;2.05;;;;;;;16.79;22.99;97622.34;5063800;28;20028;-79
2022/01/31 02:03:42;;;;;;;9.07;1.48;;;;;;;17.93;21.42;97612.59;5064119;28;20029;-79
2022/01/31 02:06:09;;;;;;;14.20;2.13;;;;;;;17.14;21.44;97607.66;5071211;28;20029;-79
2022/01/31 02:08:43;;;;;;;7.22;2.00;;;;;;;16.38;22.88;97607.25;5067548;28;20033;-79
2022/01/31 02:11:11;;;;;;;12.20;1.52;;;;;;;17.40;21.52;97593.34;5066184;28;20508;-79
2022/01/31 02:13:38;;;;;;;12.15;1.83;;;;;;;17.15;21.50;97575.97;5063492;28;20036;-79
2022/01/31 02:16:06;;;;;;;8.25;2.33;;;;;;;15.53;23.27;97578.53;5065966;28;20488;-79
2022/01/31 02:18:33;;;;;;;7.82;1.67;;;;;;;15.45;23.81;97586.00;5069124;28;20045;-79
2022/01/31 02:21:00;;;;;;;9.38;1.45;;;;;;;15.42;24.24;97585.97;5061265;28;20492;-79
2022/01/31 02:23:27;;;;;;;7.20;1.60;;;;;;;15.23;24.05;97571.28;5067868;28;20488;-79
2022/01/31 02:25:54;;;;;;;11.20;1.88;;;;;;;14.93;24.91;97562.41;5066547;28;20021;-79
2022/01/31 02:28:22;;;;;;;12.55;2.13;;;;;;;15.44;23.50;97550.41;5073975;28;20037;-79
2022/01/31 02:30:49;;;;;;;9.25;1.52;;;;;;;16.03;23.33;97552.59;5055979;28;20029;-79
2022/01/31 02:33:16;;;;;;;11.30;1.42;;;;;;;15.81;23.69;97549.00;5067484;28;20107;-79
2022/01/31 02:35:42;;;;;;;5.78;1.40;;;;;;;15.68;23.26;97541.44;5066491;28;20033;-79
2022/01/31 02:38:08;;;;;;;9.20;1.70;;;;;;;15.64;23.64;97546.16;5068991;28;20039;-79
2022/01/31 02:40:34;;;;;;;8.80;2.05;;;;;;;16.59;22.00;97543.56;5054299;28;20029;-79
2022/01/31 02:43:00;;;;;;;6.60;1.02;;;;;;;16.75;21.79;97532.88;5061434;28;20040;-79
2022/01/31 02:45:26;;;;;;;8.18;1.63;;;;;;;16.25;22.40;97534.03;5064781;28;20435;-79
2022/01/31 02:47:56;;;;;;;11.80;1.33;;;;;;;15.95;21.90;97522.50;5068687;28;20427;-79
2022/01/31 02:50:22;;;;;;;8.10;1.50;;;;;;;16.55;22.05;97540.78;5068748;28;20098;-79
2022/01/31 02:52:57;;;;;;;9.73;1.20;;;;;;;16.75;21.10;97535.63;5065564;28;20107;-79
2022/01/31 02:55:23;;;;;;;11.40;1.42;;;;;;;15.99;22.03;97531.59;5067744;28;20036;-79
2022/01/31 02:57:49;;;;;;;12.23;1.88;;;;;;;15.10;23.84;97541.53;5063693;28;20061;-79
2022/01/31 03:00:15;;;;;;;9.10;1.75;;;;;;;16.30;21.87;97542.75;5066987;28;20029;-79
2022/01/31 03:02:41;;;;;;;6.90;1.30;;;;;;;15.67;22.68;97535.13;5062189;28;20500;-79
2022/01/31 03:05:08;;;;;;;8.15;1.83;;;;;;;15.54;22.71;97547.69;5092779;28;20044;-79
2022/01/31 03:07:34;;;;;;;4.93;1.23;;;;;;;16.64;20.91;97537.59;5063578;28;20056;-79
2022/01/31 03:10:01;;;;;;;10.15;1.20;;;;;;;16.82;21.10;97535.63;5064063;28;20052;-79
2022/01/31 03:12:28;;;;;;;10.30;1.58;;;;;;;16.60;21.82;97559.00;5061836;28;20044;-79
2022/01/31 03:14:54;;;;;;;4.93;1.15;;;;;;;16.97;20.84;97539.13;5067359;28;20484;-79
2022/01/31 03:17:20;;;;;;;10.63;1.42;;;;;;;16.94;21.08;97539.97;5062920;28;20115;-79
2022/01/31 03:19:52;;;;;;;9.68;1.45;;;;;;;16.82;20.79;97535.63;5062347;28;20036;-79
2022/01/31 03:22:20;;;;;;;10.77;1.42;;;;;;;16.35;21.62;97542.34;5062650;28;20109;-79
2022/01/31 03:24:47;;;;;;;13.32;1.90;;;;;;;16.32;21.17;97542.34;5062660;28;20128;-79
2022/01/31 03:27:14;;;;;;;9.00;1.45;;;;;;;16.84;21.23;97526.91;5059699;28;20025;-79
2022/01/31 03:29:40;;;;;;;7.07;1.05;;;;;;;16.29;22.37;97532.84;5054377;28;20048;-79
2022/01/31 03:32:06;;;;;;;7.07;1.63;;;;;;;15.48;22.49;97532.69;5080409;28;20028;-79
2022/01/31 03:34:32;;;;;;;8.77;1.20;;;;;;;15.97;22.36;97528.44;5062675;28;20041;-79
2022/01/31 03:36:59;;;;;;;8.43;1.23;;;;;;;15.48;22.93;97523.56;5063812;28;20036;-79
2022/01/31 03:39:26;;;;;;;5.88;0.88;;;;;;;15.98;21.48;97527.28;5061533;28;20024;-79
2022/01/31 03:41:52;;;;;;;8.10;1.10;;;;;;;15.91;22.32;97519.75;5061391;28;20036;-79
2022/01/31 03:44:18;;;;;;;7.22;1.10;;;;;;;16.64;21.56;97520.97;5066101;28;20071;-79
2022/01/31 03:46:44;;;;;;;7.45;0.90;;;;;;;16.97;20.85;97511.41;5066994;28;20028;-79
2022/01/31 03:49:10;;;;;;;7.45;1.13;;;;;;;16.95;20.88;97511.81;5063459;28;20102;-79
2022/01/31 03:51:37;;;;;;;7.20;1.17;;;;;;;17.49;20.08;97510.44;5060140;28;20025;-79
2022/01/31 03:54:03;;;;;;;15.52;1.25;;;;;;;17.40;19.92;97504.53;5074059;28;20506;-79
2022/01/31 03:56:30;;;;;;;7.50;1.40;;;;;;;17.07;20.65;97497.53;5071464;28;20025;-79
2022/01/31 03:58:56;;;;;;;9.45;1.20;;;;;;;16.33;21.49;97499.59;5064182;28;20447;-79
2022/01/31 04:01:26;;;;;;;10.07;2.08;;;;;;;16.77;20.99;97510.28;5069812;28;20529;-79
2022/01/31 04:03:52;;;;;;;11.77;1.57;;;;;;;17.41;20.19;97503.34;5067098;28;20480;-79
2022/01/31 04:06:18;;;;;;;11.18;1.40;;;;;;;17.29;20.70;97496.25;5071458;28;20332;-79
2022/01/31 04:08:44;;;;;;;4.13;0.93;;;;;;;18.30;19.65;97484.16;5070620;28;20119;-79
2022/01/31 04:11:11;;;;;;;10.88;1.45;;;;;;;18.57;18.42;97490.72;5075216;28;20032;-79
2022/01/31 04:13:37;;;;;;;2.40;0.77;;;;;;;18.31;19.47;97489.31;5070731;28;20032;-79
2022/01/31 04:16:03;;;;;;;2.70;0.85;;;;;;;18.15;19.15;97496.59;5072478;28;20041;-79
2022/01/31 04:18:29;;;;;;;6.97;1.20;;;;;;;18.06;19.57;97487.94;5072945;28;20100;-79
2022/01/31 04:20:55;;;;;;;5.55;1.40;;;;;;;18.17;19.38;97489.44;5079757;28;20035;-79
2022/01/31 04:23:23;;;;;;;5.72;1.00;;;;;;;17.35;19.92;97479.97;5068174;28;20078;-79
2022/01/31 04:28:23;;;;;;;9.48;1.67;;;;;;;17.60;20.08;97477.09;5065158;28;20066;-79
2022/01/31 04:31:00;;;;;;;5.55;1.10;;;;;;;17.49;19.91;97471.59;5077047;28;20025;-79
2022/01/31 04:33:28;;;;;;;5.82;1.30;;;;;;;17.78;20.34;97472.25;5067409;28;20043;-79
2022/01/31 04:35:55;;;;;;;8.60;1.65;;;;;;;17.76;19.78;97466.31;5067498;28;20028;-79
2022/01/31 04:38:22;;;;;;;3.28;0.88;;;;;;;18.31;19.28;97464.31;5069887;28;20480;-79
2022/01/31 04:40:48;;;;;;;9.88;1.88;;;;;;;18.44;19.06;97472.91;5071948;28;20555;-79
2022/01/31 04:43:14;;;;;;;15.40;1.63;;;;;;;17.83;19.54;97467.03;5068381;28;20032;-79
2022/01/31 04:45:47;;;;;;;7.03;1.23;;;;;;;18.00;19.67;97473.69;5072760;28;20029;-79
2022/01/31 04:48:17;;;;;;;8.35;1.13;;;;;;;16.93;21.17;97477.38;5071191;28;20113;-79
2022/01/31 04:50:44;;;;;;;7.35;1.20;;;;;;;17.33;20.01;97465.72;5065935;28;20484;-78
2022/01/31 04:53:11;;;;;;;6.65;0.70;;;;;;;17.38;20.78;97453.41;5074954;28;20176;-78
2022/01/31 04:55:37;;;;;;;15.77;1.40;;;;;;;17.22;20.12;97448.34;5068792;28;20029;-79
2022/01/31 04:58:05;;;;;;;8.27;1.10;;;;;;;17.28;20.06;97450.28;5070199;28;20028;-79
2022/01/31 05:00:31;;;;;;;8.05;1.42;;;;;;;17.61;19.58;97450.94;5061113;28;20029;-79
2022/01/31 05:02:57;;;;;;;6.55;1.50;;;;;;;17.62;20.20;97441.44;5062302;28;20151;-79
2022/01/31 05:05:24;;;;;;;7.90;1.30;;;;;;;17.13;20.35;97448.75;5070716;28;20508;-78
2022/01/31 05:07:53;;;;;;;15.68;1.70;;;;;;;16.38;20.99;97446.59;5072776;28;20487;-78
2022/01/31 05:10:19;;;;;;;12.48;1.80;;;;;;;17.53;19.93;97443.84;5063906;28;20380;-78
2022/01/31 05:12:45;;;;;;;6.20;1.30;;;;;;;18.01;19.28;97435.59;5065194;28;20041;-79
2022/01/31 05:15:11;;;;;;;8.75;1.40;;;;;;;17.98;19.21;97434.41;5067914;28;20557;-79
2022/01/31 05:17:37;;;;;;;7.25;1.17;;;;;;;18.02;18.83;97437.94;5060875;28;20063;-78
2022/01/31 05:20:04;;;;;;;7.00;1.27;;;;;;;18.55;18.59;97429.94;5059243;28;20396;-78
2022/01/31 05:22:30;;;;;;;9.15;1.80;;;;;;;17.86;19.30;97429.34;5070988;28;20059;-78
2022/01/31 05:24:56;;;;;;;16.63;3.30;;;;;;;18.29;18.67;97425.03;5065424;28;20035;-78
2022/01/31 05:27:22;;;;;;;9.75;1.73;;;;;;;17.75;19.04;97425.84;5065768;28;20032;-78
2022/01/31 05:29:48;;;;;;;6.32;0.95;;;;;;;17.50;19.87;97423.22;5081703;28;20025;-78
2022/01/31 05:32:16;;;;;;;11.50;2.60;;;;;;;18.19;19.06;97403.69;5067036;28;20037;-78
2022/01/31 05:34:42;;;;;;;10.27;2.08;;;;;;;18.91;18.32;97402.53;5070941;28;20037;-78
2022/01/31 05:37:08;;;;;;;10.10;1.90;;;;;;;18.54;18.54;97399.78;5068312;28;20412;-78
2022/01/31 05:39:34;;;;;;;10.63;2.17;;;;;;;17.49;19.63;97393.09;5066134;28;20067;-78
2022/01/31 05:42:00;;;;;;;10.65;1.95;;;;;;;17.67;19.49;97382.69;5058859;28;20585;-78
2022/01/31 05:44:26;;;;;;;12.02;2.38;;;;;;;18.44;18.82;97382.00;5067074;28;20365;-78
2022/01/31 05:46:53;;;;;;;9.25;1.70;;;;;;;18.27;19.09;97369.09;5060203;28;20151;-78
2022/01/31 05:49:19;;;;;;;10.90;2.03;;;;;;;17.56;19.54;97366.13;5063647;28;20071;-78
2022/01/31 05:51:51;;;;;;;7.28;1.92;;;;;;;18.12;19.00;97356.53;5062331;28;20420;-78
2022/01/31 05:54:17;;;;;;;14.60;3.60;;;;;;;18.73;18.21;97353.91;5071991;28;20025;-78
2022/01/31 05:56:43;;;;;;;12.38;3.03;;;;;;;18.52;18.85;97349.38;5068320;28;20028;-78
2022/01/31 05:59:09;;;;;;;14.10;2.33;;;;;;;18.40;18.91;97342.34;5065714;28;20415;-79
2022/01/31 06:01:38;;;;;;;17.02;2.55;;;;;;;17.97;18.62;97338.38;5064628;28;20063;-78
2022/01/31 06:04:07;;;;;;;6.93;1.88;;;;;;;18.04;19.07;97338.31;5071756;28;20082;-78
2022/01/31 06:06:33;;;;;;;6.15;1.52;;;;;;;18.02;19.26;97340.72;5064635;28;20033;-78
2022/01/31 06:09:00;;;;;;;8.77;2.13;;;;;;;17.21;20.44;97336.59;5064978;28;20021;-78
2022/01/31 06:11:26;;;;;;;12.85;1.95;;;;;;;18.56;18.67;97339.81;5061303;28;20054;-78
2022/01/31 06:13:55;;;;;;;7.82;1.77;;;;;;;18.48;18.38;97341.06;5067620;28;20039;-78
2022/01/31 06:16:21;;;;;;;8.15;1.70;;;;;;;19.35;17.90;97337.56;5069405;28;20123;-78
2022/01/31 06:18:47;;;;;;;9.55;2.92;;;;;;;19.66;17.55;97339.09;5068114;28;20036;-79
2022/01/31 06:21:14;;;;;;;18.38;3.40;;;;;;;19.04;17.93;97336.78;5063712;28;20110;-79
2022/01/31 06:23:40;;;;;;;17.02;4.20;;;;;;;19.16;18.08;97339.00;5069346;28;20036;-78
2022/01/31 06:26:07;;;;;;;10.10;2.45;;;;;;;20.05;17.06;97332.84;5071375;28;20100;-78
2022/01/31 06:28:33;;;;;;;19.42;4.75;;;;;;;21.04;16.03;97334.56;5064512;28;20107;-79
2022/01/31 06:30:59;;;;;;;11.52;2.42;;;;;;;20.18;16.89;97335.84;5066480;28;20033;-79
2022/01/31 06:33:25;;;;;;;14.77;3.20;;;;;;;20.59;16.48;97328.69;5064591;28;20460;-79
2022/01/31 06:35:51;;;;;;;11.07;3.40;;;;;;;20.39;16.26;97319.53;5071047;28;20514;-78
2022/01/31 06:38:17;;;;;;;13.57;2.22;;;;;;;20.47;16.65;97320.97;5070093;28;20484;-79
2022/01/31 06:40:44;;;;;;;11.15;4.25;;;;;;;20.51;16.50;97316.09;5062105;28;20021;-79
2022/01/31 06:43:10;;;;;;;11.75;2.60;;;;;;;19.52;17.32;97305.91;5076215;28;20428;-79
2022/01/31 06:45:36;;;;;;;11.90;2.47;;;;;;;20.07;16.84;97304.59;5064469;28;20039;-79
2022/01/31 06:48:02;;;;;;;6.28;1.50;;;;;;;20.30;16.84;97297.00;5069909;28;20119;-80
2022/01/31 06:50:28;;;;;;;11.25;2.33;;;;;;;20.51;16.88;97301.38;5075073;28;20540;-79
2022/01/31 06:52:56;;;;;;;9.73;1.77;;;;;;;19.74;17.14;97292.44;5070592;28;20523;-79
2022/01/31 06:55:23;;;;;;;9.77;2.03;;;;;;;19.66;17.52;97302.91;5067025;28;20028;-78
2022/01/31 06:57:51;;;;;;;8.85;1.70;;;;;;;20.13;17.05;97302.88;5066215;28;20032;-79
2022/01/31 07:00:19;;;;;;;14.52;3.20;;;;;;;19.10;17.87;97296.19;5069229;28;20020;-78
2022/01/31 07:02:46;;;;;;;12.35;1.92;;;;;;;20.17;16.98;97293.22;5065893;28;20032;-79
2022/01/31 07:05:14;;;;;;;8.75;1.67;;;;;;;20.06;17.23;97289.88;5065992;28;20033;-79
2022/01/31 07:07:41;;;;;;;11.38;1.98;;;;;;;20.71;16.58;97284.63;5060785;28;21430;-79
2022/01/31 07:10:07;;;;;;;5.70;2.15;;;;;;;20.74;16.33;97278.19;5084863;28;20109;-79
2022/01/31 07:12:37;;;;;;;8.82;2.03;;;;;;;21.20;15.84;97272.41;5077659;28;20036;-79
2022/01/31 07:15:07;;;;;;;6.97;1.90;;;;;;;21.77;15.68;97280.19;5057030;28;20031;-79
2022/01/31 07:17:35;;;;;;;7.60;1.88;;;;;;;21.97;15.48;97275.31;5074294;28;20506;-79
2022/01/31 07:20:03;;;;;;;6.68;1.90;;;;;;;21.48;15.86;97265.34;5059732;28;20079;-79
2022/01/31 07:22:35;;;;;;;9.30;1.90;;;;;;;21.45;15.89;97272.59;5065440;28;20044;-80
2022/01/31 07:25:05;;;;;;;6.88;2.10;;;;;;;21.75;15.62;97263.09;5067767;28;20055;-79
2022/01/31 07:27:32;;;;;;;5.57;1.35;;;;;;;21.27;15.94;97258.28;5058155;28;20060;-80
2022/01/31 07:29:58;;;;;;;13.40;2.35;;;;;;;20.90;16.33;97264.28;5057804;28;20565;-80
2022/01/31 07:32:24;;;;;;;8.10;1.70;;;;;;;20.76;16.29;97272.97;5061653;28;20036;-81
2022/01/31 07:34:53;;;;;;;9.98;1.70;;;;;;;21.18;16.22;97258.88;5064122;28;20115;-80
2022/01/31 07:37:20;;;;;;;10.75;2.00;;;;;;;21.01;16.06;97253.66;5056210;28;20047;-80
2022/01/31 07:39:46;;;;;;;6.82;1.90;;;;;;;20.16;16.88;97255.44;5063860;28;20040;-81
2022/01/31 07:42:12;;;;;;;9.20;1.42;;;;;;;20.46;16.67;97263.63;5059876;28;20029;-79
2022/01/31 07:44:39;;;;;;;9.07;1.60;;;;;;;20.08;17.39;97256.78;5057637;28;20041;-80
2022/01/31 07:47:06;;;;;;;8.77;1.30;;;;;;;20.60;16.50;97251.41;5057290;28;20035;-80
2022/01/31 07:49:32;;;;;;;11.82;1.92;;;;;;;20.59;16.58;97244.22;5069162;28;20024;-80
2022/01/31 07:51:59;;;;;;;10.45;2.25;;;;;;;21.49;15.87;97239.81;5083550;28;20076;-81
2022/01/31 07:54:26;;;;;;;4.93;1.60;;;;;;;21.15;16.02;97237.41;5077553;28;20035;-80
2022/01/31 07:56:52;;;;;;;10.82;2.42;;;;;;;21.34;15.88;97233.78;5062160;28;20121;-80
2022/01/31 07:59:19;;;;;;;6.03;2.00;;;;;;;21.48;15.63;97238.22;5078379;28;20393;-80
2022/01/31 08:01:45;;;;;;;12.57;2.03;;;;;;;21.25;16.02;97239.19;5055534;28;20041;-80
2022/01/31 08:04:12;;;;;;;10.40;2.20;;;;;;;21.49;15.70;97227.84;5077921;28;20036;-79
2022/01/31 08:06:38;;;;;;;10.27;2.25;;;;;;;21.99;15.16;97226.13;5073581;28;20033;-79
2022/01/31 08:09:04;;;;;;;6.35;1.63;;;;;;;21.83;15.39;97226.13;5058063;28;20025;-79
2022/01/31 08:11:33;;;;;;;6.63;1.67;;;;;;;21.35;16.10;97226.19;5061939;28;20504;-79
2022/01/31 08:14:05;;;;;;;6.45;2.20;;;;;;;21.59;15.43;97216.38;5058575;28;20565;-79
2022/01/31 08:16:31;;;;;;;8.50;2.88;;;;;;;21.02;16.60;97213.38;5067107;28;20070;-78
2022/01/31 08:18:57;;;;;;;10.50;1.80;;;;;;;21.15;16.27;97205.91;5065431;28;20029;-78
2022/01/31 08:21:23;;;;;;;5.65;1.60;;;;;;;21.26;16.18;97209.25;5056459;28;20045;-78
2022/01/31 08:23:50;;;;;;;11.32;2.85;;;;;;;21.69;15.84;97204.16;5063967;28;20098;-79
2022/01/31 08:26:18;;;;;;;9.23;1.83;;;;;;;21.19;15.92;97204.59;5062875;28;20047;-78
2022/01/31 08:31:34;;;;;;;8.25;2.20;;;;;;;20.77;16.29;97183.25;5070966;28;20040;-78
2022/01/31 08:34:07;;;;;;;8.85;1.95;;;;;;;21.11;16.19;97194.84;5064674;28;20149;-78
2022/01/31 08:36:35;;;;;;;10.05;2.13;;;;;;;20.53;16.73;97181.81;5059945;28;20060;-78
2022/01/31 08:39:10;;;;;;;8.68;2.75;;;;;;;20.24;16.79;97183.63;5067084;28;20116;-78
2022/01/31 08:41:43;;;;;;;7.82;2.40;;;;;;;20.14;17.19;97187.41;5061751;28;20036;-78
2022/01/31 08:44:12;;;;;;;6.00;1.80;;;;;;;19.73;18.11;97188.59;5058901;28;20385;-78
2022/01/31 08:46:40;;;;;;;8.32;2.13;;;;;;;19.85;17.69;97181.59;5063875;28;20028;-78
2022/01/31 08:49:10;;;;;;;8.38;2.50;;;;;;;20.67;17.06;97181.50;5059956;28;20029;-78
2022/01/31 08:51:37;;;;;;;15.52;2.83;;;;;;;20.88;16.65;97174.66;5059240;28;20098;-78
2022/01/31 08:54:06;;;;;;;12.85;2.90;;;;;;;21.65;16.03;97172.75;5066020;28;20028;-78
2022/01/31 08:56:40;;;;;;;12.10;2.25;;;;;;;21.32;16.11;97171.22;5067150;28;20016;-78
2022/01/31 08:59:07;;;;;;;7.25;2.38;;;;;;;21.55;16.61;97171.00;5064293;28;20037;-78
2022/01/31 09:01:34;;;;;;;16.65;3.30;;;;;;;21.99;15.29;97173.03;5061981;28;20025;-78
2022/01/31 09:04:01;;;;;;;12.93;2.95;;;;;;;22.30;15.63;97167.75;5061846;28;20492;-78
2022/01/31 09:06:29;;;;;;;15.93;4.20;;;;;;;22.73;15.08;97163.72;5060032;28;20033;-78
2022/01/31 09:08:57;;;;;;;9.82;2.75;;;;;;;22.64;15.22;97159.53;5067066;28;20503;-78
2022/01/31 09:11:24;;;;;;;11.75;3.20;;;;;;;22.35;15.47;97152.44;5063891;28;20033;-78
2022/01/31 09:13:51;;;;;;;13.05;3.30;;;;;;;22.38;15.22;97146.72;5062874;28;20111;-78
2022/01/31 09:16:18;;;;;;;12.02;3.40;;;;;;;22.46;15.57;97144.50;5069625;28;20054;-78
2022/01/31 09:18:44;;;;;;;13.40;3.30;;;;;;;21.57;15.78;97149.00;5086643;28;20082;-78
2022/01/31 09:21:10;;;;;;;20.48;3.65;;;;;;;21.75;15.86;97142.94;5087904;28;20049;-78
2022/01/31 09:23:37;;;;;;;12.48;2.90;;;;;;;21.98;15.71;97142.72;5055353;28;20488;-78
2022/01/31 09:26:04;;;;;;;10.30;2.40;;;;;;;21.94;16.11;97131.63;5055235;28;20075;-78
2022/01/31 09:28:30;;;;;;;11.73;2.72;;;;;;;22.26;15.76;97130.72;5066386;28;20197;-78
2022/01/31 09:30:57;;;;;;;13.90;3.58;;;;;;;23.23;15.11;97138.47;5061712;28;20039;-78
2022/01/31 09:33:25;;;;;;;13.05;3.40;;;;;;;23.52;14.60;97119.50;5060134;28;20037;-78
2022/01/31 09:35:51;;;;;;;6.53;2.47;;;;;;;24.13;14.56;97123.75;5064848;28;20101;-78
2022/01/31 09:38:22;;;;;;;9.65;2.42;;;;;;;24.57;14.15;97123.22;5058525;28;20037;-78
2022/01/31 09:40:48;;;;;;;13.20;3.25;;;;;;;25.00;14.21;97111.09;5063138;28;20033;-78
2022/01/31 09:48:33;;;;;;;17.98;4.95;;;;;;;25.28;13.65;97092.25;5066954;28;20037;-79
2022/01/31 09:51:05;;;;;;;12.65;3.40;;;;;;;25.43;13.63;97090.41;5068283;28;20481;-78
2022/01/31 09:53:33;;;;;;;17.20;4.30;;;;;;;25.59;13.66;97084.53;5061824;28;20111;-78
2022/01/31 09:56:00;;;;;;;10.70;2.92;;;;;;;25.89;13.62;97082.78;5061701;28;20115;-78
2022/01/31 09:58:29;;;;;;;19.15;4.47;;;;;;;25.96;12.65;97076.84;5093408;28;20020;-79
2022/01/31 10:01:13;;;;;;;9.63;3.15;;;;;;;25.87;13.47;97066.41;5058347;28;20060;-78
2022/01/31 10:03:51;;;;;;;11.27;2.85;;;;;;;25.87;12.76;97059.97;5064280;28;20044;-79
2022/01/31 10:06:23;;;;;;;12.07;3.60;;;;;;;25.91;13.53;97052.16;5058509;28;20032;-78
2022/01/31 10:09:08;;;;;;;10.98;2.92;;;;;;;25.81;13.14;97042.94;5057978;28;20055;-78
2022/01/31 10:11:43;;;;;;;9.65;3.72;;;;;;;26.21;13.21;97044.78;5063576;28;20044;-78
2022/01/31 10:17:25;;;;;;;12.63;3.75;;;;;;;25.58;13.35;97034.41;5064115;28;20059;-78
2022/01/31 10:19:55;;;;;;;14.10;3.72;;;;;;;25.72;13.18;97023.28;5059270;28;20111;-78
2022/01/31 10:22:23;;;;;;;11.13;2.70;;;;;;;25.48;13.63;97016.75;5061679;28;20140;-79
2022/01/31 10:24:53;;;;;;;11.70;2.70;;;;;;;24.98;13.62;97015.28;5057437;28;20072;-79
2022/01/31 10:27:33;;;;;;;11.45;2.70;;;;;;;25.03;13.82;97011.88;5064165;28;20028;-79
2022/01/31 10:30:11;;;;;;;6.20;2.53;;;;;;;25.18;13.52;97009.25;5066187;28;20032;-78
2022/01/31 10:32:40;;;;;;;10.30;2.35;;;;;;;25.57;13.49;97010.34;5058325;28;20036;-78
2022/01/31 10:35:10;;;;;;;12.15;3.38;;;;;;;25.72;13.25;97009.22;5061448;28;20025;-79
2022/01/31 10:37:38;;;;;;;9.93;2.78;;;;;;;25.23;13.16;97019.81;5064874;28;20119;-79
2022/01/31 10:54:25;;;;;;;12.55;2.42;;;;;;;23.52;14.26;97003.84;5051474;28;20496;-78
2022/01/31 10:56:52;;;;;;;13.27;4.03;;;;;;;22.61;15.15;96998.16;5060931;28;20043;-78
2022/01/31 10:59:22;;;;;;;7.75;3.00;;;;;;;22.90;15.02;96994.41;5053616;28;20048;-78
2022/01/31 11:01:54;;;;;;;9.05;2.40;;;;;;;22.97;14.55;96991.34;5054355;28;20412;-78
2022/01/31 11:04:22;;;;;;;9.77;2.45;;;;;;;23.88;14.56;96987.25;5073082;28;20067;-78
2022/01/31 11:06:56;;;;;;;9.45;2.92;;;;;;;24.45;13.75;96988.63;5061357;28;20029;-78
2022/01/31 11:09:22;;;;;;;10.40;2.25;;;;;;;23.98;13.82;96980.44;5061412;28;20049;-78
2022/01/31 11:11:50;;;;;;;12.63;3.10;;;;;;;23.83;14.08;96968.19;5053827;28;20029;-78
2022/01/31 11:14:17;;;;;;;12.82;2.85;;;;;;;23.89;14.20;96969.97;5059854;28;20049;-78
2022/01/31 11:16:46;;;;;;;8.32;2.40;;;;;;;23.92;14.52;96977.44;5053169;28;20506;-78
2022/01/31 11:19:16;;;;;;;8.40;2.58;;;;;;;23.94;14.13;96963.75;5052638;28;20495;-79
2022/01/31 11:21:45;;;;;;;13.20;3.50;;;;;;;23.96;13.82;96961.28;5060516;28;20056;-79
2022/01/31 11:24:20;;;;;;;7.90;2.00;;;;;;;23.46;14.36;96967.22;5059676;28;20396;-79
2022/01/31 11:26:54;;;;;;;6.38;2.05;;;;;;;23.35;14.56;96969.63;5060085;28;20026;-79
2022/01/31 11:29:20;;;;;;;8.25;2.13;;;;;;;23.07;14.47;96965.03;5066855;28;20037;-79
2022/01/31 11:31:46;;;;;;;9.80;2.47;;;;;;;22.87;14.70;96953.34;5058745;28;20033;-79
2022/01/31 11:34:13;;;;;;;8.50;2.53;;;;;;;22.78;15.13;96953.25;5060525;28;20029;-79
2022/01/31 11:36:42;;;;;;;13.52;2.78;;;;;;;22.83;14.76;96952.66;5061312;28;20033;-79
2022/01/31 11:39:12;;;;;;;8.15;2.50;;;;;;;23.00;14.98;96937.28;5063617;28;20484;-79
2022/01/31 11:41:56;;;;;;;9.00;2.53;;;;;;;23.42;14.76;96932.94;5065674;28;20033;-79
2022/01/31 11:44:57;;;;;;;10.55;2.58;;;;;;;22.87;14.97;96947.75;5054612;28;20420;-80
2022/01/31 11:47:27;;;;;;;12.23;3.42;;;;;;;23.54;14.57;96936.91;5067347;28;20458;-79
2022/01/31 11:50:00;;;;;;;13.40;3.38;;;;;;;23.83;14.83;96940.97;5068889;28;20062;-80
2022/01/31 11:52:32;;;;;;;9.43;2.80;;;;;;;24.02;14.31;96939.81;5060900;28;20068;-80
2022/01/31 11:55:00;;;;;;;9.93;2.92;;;;;;;24.24;14.31;96924.97;5065457;28;20040;-80
2022/01/31 11:57:29;;;;;;;7.60;2.53;;;;;;;24.26;14.35;96930.88;5057956;28;20397;-80
2022/01/31 11:59:58;;;;;;;13.73;3.25;;;;;;;23.72;14.25;96928.59;5054847;28;20033;-80